Aviation Digital Data Service (ADDS)

Output produced by METARs form (0846 UTC 23 May 2015)
found at http://aviationweather.gov/adds/metars/
 
KEWN 230528Z 2305/2406 00000KT 4SM BR SCT002 
     TEMPO 2306/2309 1SM BR VV002 
     FM231300 03007KT P6SM SCT050 
     FM240000 09005KT P6SM SKC